Terminal Aerodrome Forecast
Issued by NWS

Home | Current Version | Previous Version | Text Only | Print | Product List | Glossary On
Versions: 1 2 3 4 5 6 7 8 9 10 11 12 13 14 15 16
418
FTUS46 KSEW 220539
TAFHQM
TAF
KHQM 220539Z 2206/2306 VRB03KT P6SM SKC
     FM220700 VRB03KT 5SM BR BKN007
     FM220900 VRB03KT 1SM BR OVC003
     FM221600 26006KT 5SM BR OVC006
     FM221800 26006KT P6SM BKN009
     FM222000 24012KT P6SM SCT250
     FM230400 26006KT 5SM BR OVC008=

USA.gov is the U.S. government's official web portal to all federal, state and local government web resources and services.